createdAt,value
2022-12-18T00:03:10.413Z,102859.25
2022-12-18T00:08:12.613Z,102868.75
2022-12-18T00:13:14.764Z,102868.19
2022-12-18T00:18:20.672Z,102860.44
2022-12-18T00:23:22.917Z,102863.16
2022-12-18T00:28:25.279Z,102854.75
2022-12-18T00:33:29.770Z,102859.66
2022-12-18T00:38:31.937Z,102861.97
2022-12-18T00:43:37.713Z,102851.78
2022-12-18T00:48:41.393Z,102855.41
2022-12-18T00:53:44.504Z,102868.41
2022-12-18T00:58:46.718Z,102862.31
2022-12-18T01:03:50.092Z,102854.16
2022-12-18T01:08:52.315Z,102857.78
2022-12-18T01:13:55.198Z,102876.28
2022-12-18T01:18:59.448Z,102879.78
2022-12-18T01:24:01.645Z,102887.53
2022-12-18T01:29:04.094Z,102892.94
2022-12-18T01:34:07.515Z,102886.44
2022-12-18T01:39:12.576Z,102889.75
2022-12-18T01:44:54.487Z,102893.03
2022-12-18T01:50:01.152Z,102899.75
2022-12-18T01:55:05.919Z,102897.63
2022-12-18T02:00:11.691Z,102892.75
2022-12-18T02:05:18.468Z,102907.16
2022-12-18T02:10:27.763Z,102906.84
2022-12-18T02:15:37.644Z,102915.84
2022-12-18T02:20:46.851Z,102920.75
2022-12-18T02:26:08.229Z,102912.59
2022-12-18T02:31:15.609Z,102905.00
2022-12-18T02:36:20.221Z,102910.75
2022-12-18T02:41:27.486Z,102910.53
2022-12-18T02:46:36.042Z,102907.16
2022-12-18T02:51:46.187Z,102921.09
2022-12-18T02:56:54.158Z,102917.34
2022-12-18T03:02:02.139Z,102931.28
2022-12-18T03:07:09.335Z,102914.47
2022-12-18T03:12:19.405Z,102925.00
2022-12-18T03:17:25.256Z,102928.00
2022-12-18T03:22:30.986Z,102930.22
2022-12-18T03:27:37.551Z,102928.94
2022-12-18T03:32:44.044Z,102914.44
2022-12-18T03:37:46.273Z,102922.69
2022-12-18T03:42:53.669Z,102919.34
2022-12-18T03:48:02.613Z,102913.78
2022-12-18T03:53:18.582Z,102914.09
2022-12-18T03:58:26.613Z,102928.88
2022-12-18T04:03:31.050Z,102942.09
2022-12-18T04:08:33.827Z,102951.88
2022-12-18T04:13:39.067Z,102941.16
2022-12-18T04:18:42.219Z,102947.94
2022-12-18T04:23:44.368Z,102952.22
2022-12-18T04:28:47.889Z,102958.34
2022-12-18T04:33:50.225Z,102949.47
2022-12-18T04:38:52.339Z,102952.19
2022-12-18T04:43:55.747Z,102956.91
2022-12-18T04:48:57.816Z,102950.06
2022-12-18T04:53:59.769Z,102945.91
2022-12-18T04:59:03.237Z,102957.91
2022-12-18T05:04:05.495Z,102970.03
2022-12-18T05:09:08.138Z,102974.56
2022-12-18T05:14:11.799Z,102971.22
2022-12-18T05:19:13.973Z,102963.88
2022-12-18T05:24:16.670Z,102969.69
2022-12-18T05:29:20.314Z,102977.25
2022-12-18T05:34:22.604Z,102983.88
2022-12-18T05:39:24.656Z,102985.28
2022-12-18T05:44:28.167Z,102994.53
2022-12-18T05:49:30.205Z,102990.69
2022-12-18T05:54:32.337Z,102991.19
2022-12-18T05:59:36.019Z,102995.66
2022-12-18T06:04:38.094Z,103007.03
2022-12-18T06:09:40.225Z,103014.16
2022-12-18T06:14:43.693Z,103010.19
2022-12-18T06:19:45.750Z,103018.94
2022-12-18T06:24:47.849Z,103016.84
2022-12-18T06:29:51.415Z,103007.13
2022-12-18T06:34:54.078Z,103017.41
2022-12-18T06:39:56.273Z,103023.97
2022-12-18T06:44:59.694Z,103038.94
2022-12-18T06:50:01.818Z,103051.66
2022-12-18T06:55:04.755Z,103054.66
2022-12-18T07:00:09.168Z,103051.59
2022-12-18T07:05:11.347Z,103056.16
2022-12-18T07:10:13.560Z,103062.53
2022-12-18T07:15:17.089Z,103061.25
2022-12-18T07:20:19.338Z,103051.72
2022-12-18T07:25:21.288Z,103037.88
2022-12-18T07:30:24.371Z,103051.22
2022-12-18T07:35:27.244Z,103051.31
2022-12-18T07:40:29.162Z,103045.69
2022-12-18T07:45:35.720Z,103050.13
2022-12-18T07:50:37.929Z,103044.25
2022-12-18T07:56:05.390Z,103055.00
2022-12-18T08:01:08.965Z,103060.25
2022-12-18T08:06:11.731Z,103068.03
2022-12-18T08:11:13.845Z,103074.72
2022-12-18T08:16:17.873Z,103082.06
2022-12-18T08:21:21.485Z,103084.44
2022-12-18T08:26:25.411Z,103082.22
2022-12-18T08:31:30.259Z,103084.50
2022-12-18T08:36:32.938Z,103081.78
2022-12-18T08:41:34.683Z,103100.69
2022-12-18T08:46:40.357Z,103112.22
2022-12-18T08:51:42.197Z,103120.34
2022-12-18T08:56:44.283Z,103121.34
2022-12-18T09:01:48.671Z,103125.81
2022-12-18T09:06:50.762Z,103122.47
2022-12-18T09:11:52.962Z,103134.03
2022-12-18T09:16:56.817Z,103125.28
2022-12-18T09:21:59.073Z,103126.53
2022-12-18T09:27:00.841Z,103129.41
2022-12-18T09:32:04.931Z,103124.88
2022-12-18T09:37:07.347Z,103135.06
2022-12-18T09:42:19.220Z,103114.03
2022-12-18T09:47:25.988Z,103093.81
2022-12-18T09:52:34.061Z,103087.50
2022-12-18T09:57:40.221Z,103081.06
2022-12-18T10:02:43.520Z,103064.63
2022-12-18T10:07:56.421Z,103068.56
2022-12-18T10:13:09.035Z,103065.75
2022-12-18T10:18:27.384Z,103077.81
2022-12-18T10:23:46.390Z,103066.75
2022-12-18T10:28:52.085Z,103066.06
2022-12-18T10:33:56.416Z,103067.69
2022-12-18T10:39:16.520Z,103067.47
2022-12-18T10:44:20.315Z,103054.06
2022-12-18T10:49:30.280Z,103043.66
2022-12-18T10:54:34.003Z,103036.53
2022-12-18T10:59:52.262Z,103024.00
2022-12-18T11:04:55.691Z,103026.31
2022-12-18T11:10:17.764Z,103036.03
2022-12-18T11:15:22.455Z,103036.66
2022-12-18T11:20:32.275Z,103029.69
2022-12-18T11:25:35.942Z,103024.81
2022-12-18T11:30:39.151Z,103030.63
2022-12-18T11:35:49.477Z,103027.25
2022-12-18T11:40:57.414Z,103029.09
2022-12-18T11:46:05.692Z,103037.16
2022-12-18T11:51:13.706Z,103049.63
2022-12-18T11:56:30.938Z,103058.00
2022-12-18T12:01:45.107Z,103041.03
2022-12-18T12:07:03.306Z,103047.41
2022-12-18T12:12:24.294Z,103043.41
2022-12-18T12:17:38.175Z,103053.63
2022-12-18T12:22:51.015Z,103056.09
2022-12-18T12:28:07.967Z,103061.81
2022-12-18T12:33:22.343Z,103062.19
2022-12-18T12:38:29.028Z,103054.44
2022-12-18T12:43:44.753Z,103038.75
2022-12-18T12:48:55.082Z,103018.91
2022-12-18T12:54:01.204Z,103027.22
2022-12-18T12:59:12.700Z,103012.13
2022-12-18T13:04:23.250Z,103010.59
2022-12-18T13:09:31.435Z,103017.44
2022-12-18T13:14:38.448Z,103012.13
2022-12-18T13:19:40.404Z,103004.22
2022-12-18T13:24:44.611Z,103004.38
2022-12-18T13:29:47.696Z,102991.66
2022-12-18T13:34:49.748Z,102993.19
2022-12-18T13:39:53.242Z,102989.06
2022-12-18T13:44:56.116Z,102991.41
2022-12-18T13:49:58.399Z,102991.41
2022-12-18T13:55:05.489Z,102999.47
2022-12-18T14:00:25.839Z,102988.59
2022-12-18T14:05:30.137Z,102972.75
2022-12-18T14:10:47.730Z,102960.19
2022-12-18T14:15:52.384Z,102966.41
2022-12-18T14:20:57.602Z,102964.22
2022-12-18T14:26:05.746Z,102942.59
2022-12-18T14:31:18.700Z,102957.47
2022-12-18T14:36:22.524Z,102942.19
2022-12-18T14:41:27.597Z,102951.00
2022-12-18T14:46:35.382Z,102962.66
2022-12-18T14:51:37.677Z,102956.16
2022-12-18T14:56:46.978Z,102954.63
2022-12-18T15:02:06.014Z,102953.59
2022-12-18T15:07:15.342Z,102950.84
2022-12-18T15:12:33.447Z,102944.88
2022-12-18T15:17:36.129Z,102932.59
2022-12-18T15:22:38.422Z,102923.78
2022-12-18T15:27:48.023Z,102929.72
2022-12-18T15:32:50.982Z,102947.84
2022-12-18T15:37:53.110Z,102971.41
2022-12-18T15:42:57.326Z,102963.25
2022-12-18T15:48:00.176Z,102952.88
2022-12-18T15:53:02.277Z,102942.69
2022-12-18T15:58:07.804Z,102924.00
2022-12-18T16:03:11.601Z,102937.22
2022-12-18T16:08:13.399Z,102940.09
2022-12-18T16:13:20.420Z,102936.69
2022-12-18T16:18:22.237Z,102925.16
2022-12-18T16:23:24.220Z,102924.66
2022-12-18T16:28:27.740Z,102915.34
2022-12-18T16:33:29.930Z,102921.16
2022-12-18T16:38:31.758Z,102915.34
2022-12-18T16:43:35.555Z,102900.06
2022-12-18T16:48:37.924Z,102901.25
2022-12-18T16:53:40.483Z,102911.56
2022-12-18T16:58:43.892Z,102915.41
2022-12-18T17:03:52.459Z,102921.34
2022-12-18T17:08:56.125Z,102918.59
2022-12-18T17:13:59.394Z,102914.63
2022-12-18T17:19:02.293Z,102922.50
2022-12-18T17:24:04.861Z,102911.88
2022-12-18T17:29:10.918Z,102898.41
2022-12-18T17:34:15.341Z,102895.28
2022-12-18T17:39:19.957Z,102894.00
2022-12-18T17:44:23.307Z,102884.91
2022-12-18T17:49:25.431Z,102880.44
2022-12-18T17:54:27.992Z,102884.59
2022-12-18T17:59:31.843Z,102873.81
2022-12-18T18:04:33.870Z,102859.09
2022-12-18T18:09:35.954Z,102855.81
2022-12-18T18:14:39.505Z,102850.50
2022-12-18T18:19:41.581Z,102837.44
2022-12-18T18:24:44.889Z,102822.16
2022-12-18T18:29:48.341Z,102829.00
2022-12-18T18:34:50.476Z,102832.38
2022-12-18T18:39:52.924Z,102814.84
2022-12-18T18:44:55.988Z,102820.06
2022-12-18T18:49:59.825Z,102813.22
2022-12-18T18:55:13.228Z,102792.66
2022-12-18T19:00:18.025Z,102769.41
2022-12-18T19:05:20.215Z,102755.94
2022-12-18T19:10:22.418Z,102773.78
2022-12-18T19:15:26.111Z,102768.28
2022-12-18T19:20:28.595Z,102769.47
2022-12-18T19:25:40.607Z,102779.53
2022-12-18T19:30:46.286Z,102775.41
2022-12-18T19:35:51.443Z,102766.72
2022-12-18T19:40:53.944Z,102758.38
2022-12-18T19:45:58.078Z,102760.41
2022-12-18T19:51:05.722Z,102768.91
2022-12-18T19:56:10.751Z,102762.50
2022-12-18T20:01:16.897Z,102752.66
2022-12-18T20:06:24.398Z,102755.00
2022-12-18T20:11:26.871Z,102751.13
2022-12-18T20:16:30.912Z,102743.38
2022-12-18T20:21:34.218Z,102733.03
2022-12-18T20:26:36.700Z,102704.72
2022-12-18T20:31:41.391Z,102715.34
2022-12-18T20:36:44.389Z,102709.53
2022-12-18T20:41:46.647Z,102698.59
2022-12-18T20:46:50.968Z,102699.78
2022-12-18T20:51:55.246Z,102701.84
2022-12-18T20:56:57.874Z,102700.28
2022-12-18T21:02:01.736Z,102691.78
2022-12-18T21:07:04.425Z,102685.81
2022-12-18T21:12:15.920Z,102680.94
2022-12-18T21:17:19.660Z,102680.13
2022-12-18T21:22:21.956Z,102679.53
2022-12-18T21:27:24.120Z,102679.75
2022-12-18T21:32:29.827Z,102679.75
2022-12-18T21:37:36.135Z,102671.25
2022-12-18T21:42:38.338Z,102682.25
2022-12-18T21:47:41.874Z,102677.34
2022-12-18T21:52:44.189Z,102678.91
2022-12-18T21:58:02.979Z,102681.72
2022-12-18T22:03:18.882Z,102682.53
2022-12-18T22:08:22.018Z,102660.25
2022-12-18T22:13:24.103Z,102657.44
2022-12-18T22:18:27.690Z,102650.72
2022-12-18T22:23:29.785Z,102635.72
2022-12-18T22:28:31.885Z,102629.50
2022-12-18T22:33:35.082Z,102639.72
2022-12-18T22:38:37.291Z,102613.88
2022-12-18T22:43:39.650Z,102602.41
2022-12-18T22:48:43.725Z,102599.81
2022-12-18T22:53:46.478Z,102588.41
2022-12-18T22:58:51.678Z,102569.28
2022-12-18T23:03:55.842Z,102567.22
2022-12-18T23:08:58.194Z,102547.72
2022-12-18T23:14:00.411Z,102545.25
2022-12-18T23:19:04.241Z,102527.94
2022-12-18T23:24:07.342Z,102531.03
2022-12-18T23:29:09.522Z,102524.84
2022-12-18T23:34:14.497Z,102519.91
2022-12-18T23:39:29.866Z,102522.91
2022-12-18T23:44:32.950Z,102503.13
2022-12-18T23:49:36.505Z,102478.28
2022-12-18T23:54:39.149Z,102472.16
2022-12-18T23:59:41.412Z,102463.72
